메인 페이지
METAR-TAF:

METAR-TAF

공항 :

우베를란지아, 미나스제라이스, 브라질

위도: 18-53S, 경도: 048-14W, 고도: 943m

현재 날씨관측

예보는 1 시간 12분 전, 21:00시(UTC)에 발표되었습니다.
북북동4kt
온도 24°C
습도 34%
기압 1023 hPa
시정 10km 이상
1500m 미만 상공 구름 및 적란운 없음

METAR: SBUL 202100Z 02004KT CAVOK 24/07 Q1023

시각: 19:12 (22:12 UTC)

예보

예보는 7 시간 12분 전, 15:00시(UTC)에 발표되었습니다.
예보 대상 시간: 20일 18시부터 21일 06시까지 (UTC)
북동7kt
시정 10km 이상
1500m 미만 상공 구름 및 적란운 없음
전환 중
20일 19시부터 20일 21시까지 (UTC)
남동5kt
전환 중
21일 00시부터 21일 02시까지 (UTC)
5kt

TAF: SBUL 201500Z 2018/2106 05007KT CAVOK TX27/2018Z TN16/2106Z BECMG 2019/2021 13005KT BECMG 2100/2102 10005KT RMK PGN

4,000개 이상의 공항 관측 자료 및 예보 (METAR 및 TAF 보고).

지도상에서 검색 가능한 기상관측소가 노란 점과 빨간 점으로 표시되어 있습니다.

기상관측소 명을 보려면 표시 위로 마우스를 이동하세요.

날씨 관측과 예보를 보려면 클릭하세요.

지도 변경 : 확대하려면 엑스 표시가 있는 녹색 버튼, 축소하려면 빼기 표시가 있는 녹색 버튼, 다음 페이지의 지도를 보려면 녹색 화살표를 클릭하세요.


METAR-TAF: